createdAt,value
2018-07-03T00:00:14.529Z,25.15
2018-07-03T00:02:41.141Z,25.12
2018-07-03T00:05:07.776Z,25.11
2018-07-03T00:07:34.462Z,25.08
2018-07-03T00:10:01.097Z,25.10
2018-07-03T00:12:27.746Z,25.13
2018-07-03T00:14:54.385Z,25.10
2018-07-03T00:17:21.078Z,25.07
2018-07-03T00:19:47.715Z,25.08
2018-07-03T00:22:14.394Z,25.11
2018-07-03T00:24:41.043Z,25.08
2018-07-03T00:27:07.721Z,25.08
2018-07-03T00:29:34.356Z,25.07
2018-07-03T00:32:00.989Z,25.07
2018-07-03T00:34:27.622Z,25.04
2018-07-03T00:36:54.259Z,25.02
2018-07-03T00:39:20.901Z,25.04
2018-07-03T00:41:47.551Z,25.01
2018-07-03T00:44:14.189Z,25.04
2018-07-03T00:46:40.818Z,25.05
2018-07-03T00:49:07.499Z,25.00
2018-07-03T00:51:34.221Z,25.00
2018-07-03T00:54:00.917Z,25.02
2018-07-03T00:56:27.542Z,25.00
2018-07-03T00:58:54.191Z,24.99
2018-07-03T01:01:20.830Z,25.00
2018-07-03T01:03:47.468Z,24.99
2018-07-03T01:06:14.105Z,24.99
2018-07-03T01:08:40.750Z,24.95
2018-07-03T01:11:07.380Z,24.96
2018-07-03T01:13:34.016Z,24.92
2018-07-03T01:16:00.692Z,24.97
2018-07-03T01:18:27.325Z,24.92
2018-07-03T01:20:54.007Z,24.90
2018-07-03T01:23:20.674Z,24.95
2018-07-03T01:25:47.310Z,24.93
2018-07-03T01:28:13.999Z,24.91
2018-07-03T01:30:40.625Z,24.95
2018-07-03T01:33:07.266Z,24.91
2018-07-03T01:35:33.916Z,24.93
2018-07-03T01:38:00.550Z,24.89
2018-07-03T01:40:27.202Z,24.91
2018-07-03T01:42:53.840Z,24.90
2018-07-03T01:45:20.475Z,24.84
2018-07-03T01:47:47.117Z,24.89
2018-07-03T01:50:13.755Z,24.84
2018-07-03T01:52:40.441Z,24.83
2018-07-03T01:55:07.089Z,24.89
2018-07-03T01:57:33.765Z,24.85
2018-07-03T02:00:00.487Z,24.86
2018-07-03T02:02:27.135Z,24.85
2018-07-03T02:04:53.775Z,24.92
2018-07-03T02:07:20.419Z,24.84
2018-07-03T02:09:47.044Z,24.83
2018-07-03T02:12:13.701Z,24.82
2018-07-03T02:14:40.349Z,24.85
2018-07-03T02:17:07.002Z,24.82
2018-07-03T02:19:33.646Z,24.82
2018-07-03T02:22:00.281Z,24.80
2018-07-03T02:24:26.994Z,24.78
2018-07-03T02:26:53.616Z,24.79
2018-07-03T02:29:20.288Z,24.75
2018-07-03T02:31:46.924Z,24.77
2018-07-03T02:34:13.614Z,24.75
2018-07-03T02:36:40.251Z,24.73
2018-07-03T02:39:06.967Z,24.74
2018-07-03T02:41:33.538Z,24.76
2018-07-03T02:44:00.164Z,24.73
2018-07-03T02:46:26.846Z,24.74
2018-07-03T02:48:53.434Z,24.73
2018-07-03T02:51:20.071Z,24.72
2018-07-03T02:53:46.695Z,24.74
2018-07-03T02:56:13.344Z,24.72
2018-07-03T02:58:39.972Z,24.71
2018-07-03T03:01:06.620Z,24.68
2018-07-03T03:03:33.261Z,24.75
2018-07-03T03:05:59.944Z,24.76
2018-07-03T03:08:26.624Z,24.76
2018-07-03T03:10:53.217Z,24.72
2018-07-03T03:13:19.940Z,24.68
2018-07-03T03:15:46.581Z,24.62
2018-07-03T03:18:13.216Z,24.57
2018-07-03T03:20:39.872Z,24.55
2018-07-03T03:23:06.553Z,24.55
2018-07-03T03:25:33.226Z,24.60
2018-07-03T03:27:59.899Z,24.54
2018-07-03T03:30:26.571Z,24.57
2018-07-03T03:32:53.212Z,24.53
2018-07-03T03:35:19.848Z,24.57
2018-07-03T03:37:46.521Z,24.54
2018-07-03T03:40:13.170Z,24.48
2018-07-03T03:42:39.846Z,24.41
2018-07-03T03:45:06.483Z,24.42
2018-07-03T03:47:33.164Z,24.43
2018-07-03T03:49:59.779Z,24.47
2018-07-03T03:52:26.405Z,24.58
2018-07-03T03:54:53.090Z,24.65
2018-07-03T03:57:19.725Z,24.89
2018-07-03T03:59:46.358Z,24.87
2018-07-03T04:02:13.079Z,24.89
2018-07-03T04:04:39.651Z,24.93
2018-07-03T04:07:06.363Z,24.93
2018-07-03T04:09:32.958Z,25.02
2018-07-03T04:11:59.649Z,25.05
2018-07-03T04:14:26.293Z,25.20
2018-07-03T04:16:52.922Z,25.33
2018-07-03T04:19:19.599Z,25.24
2018-07-03T04:21:46.230Z,25.21
2018-07-03T04:24:14.241Z,25.24
2018-07-03T04:26:39.540Z,25.32
2018-07-03T04:29:09.825Z,25.40
2018-07-03T04:31:36.470Z,25.36
2018-07-03T04:34:03.145Z,25.45
2018-07-03T04:36:29.751Z,25.44
2018-07-03T04:38:56.463Z,25.57
2018-07-03T04:41:23.158Z,25.66
2018-07-03T04:43:49.776Z,25.55
2018-07-03T04:46:16.412Z,25.54
2018-07-03T04:48:43.099Z,25.51
2018-07-03T04:51:09.743Z,25.62
2018-07-03T04:53:36.381Z,25.68
2018-07-03T04:56:03.064Z,25.76
2018-07-03T04:58:29.673Z,25.70
2018-07-03T05:00:56.311Z,25.63
2018-07-03T05:03:22.971Z,25.68
2018-07-03T05:05:49.614Z,25.75
2018-07-03T05:08:16.290Z,25.71
2018-07-03T05:10:42.957Z,25.82
2018-07-03T05:13:09.678Z,25.55
2018-07-03T05:15:36.318Z,25.48
2018-07-03T05:18:02.991Z,25.46
2018-07-03T05:20:29.663Z,25.47
2018-07-03T05:22:56.312Z,25.59
2018-07-03T05:25:23.001Z,25.61
2018-07-03T05:27:49.641Z,25.59
2018-07-03T05:30:16.279Z,25.65
2018-07-03T05:32:42.934Z,25.75
2018-07-03T05:35:09.608Z,25.73
2018-07-03T05:37:36.239Z,25.65
2018-07-03T05:40:02.870Z,25.68
2018-07-03T05:42:29.522Z,25.78
2018-07-03T05:44:56.209Z,25.79
2018-07-03T05:47:22.839Z,25.91
2018-07-03T05:49:49.477Z,25.84
2018-07-03T05:52:16.133Z,25.85
2018-07-03T05:54:42.951Z,25.87
2018-07-03T05:57:09.477Z,25.98
2018-07-03T05:59:36.067Z,25.99
2018-07-03T06:02:02.728Z,25.92
2018-07-03T06:04:29.374Z,26.00
2018-07-03T06:06:56.012Z,25.97
2018-07-03T06:09:23.148Z,25.93
2018-07-03T06:11:49.337Z,26.10
2018-07-03T06:14:15.977Z,26.09
2018-07-03T06:16:42.719Z,26.00
2018-07-03T06:19:09.355Z,25.89
2018-07-03T06:21:35.993Z,25.91
2018-07-03T06:24:02.689Z,25.91
2018-07-03T06:26:29.339Z,25.87
2018-07-03T06:28:56.026Z,25.88
2018-07-03T06:31:23.232Z,25.84
2018-07-03T06:33:49.880Z,25.84
2018-07-03T06:36:16.520Z,25.83
2018-07-03T06:38:43.221Z,25.82
2018-07-03T06:41:09.852Z,25.68
2018-07-03T06:43:36.714Z,25.72
2018-07-03T06:46:03.235Z,25.64
2018-07-03T06:48:29.928Z,25.68
2018-07-03T06:50:56.568Z,25.62
2018-07-03T06:53:23.299Z,25.61
2018-07-03T06:55:50.014Z,25.79
2018-07-03T06:58:16.614Z,25.79
2018-07-03T07:00:43.267Z,25.68
2018-07-03T07:03:09.982Z,25.73
2018-07-03T07:05:36.637Z,25.75
2018-07-03T07:08:03.288Z,25.80
2018-07-03T07:10:29.997Z,25.80
2018-07-03T07:12:56.637Z,25.92
2018-07-03T07:15:23.276Z,25.92
2018-07-03T07:17:49.966Z,25.89
2018-07-03T07:20:16.622Z,25.94
2018-07-03T07:22:43.314Z,25.87
2018-07-03T07:25:09.932Z,25.84
2018-07-03T07:27:36.655Z,25.74
2018-07-03T07:30:03.468Z,25.78
2018-07-03T07:32:30.110Z,25.88
2018-07-03T07:34:56.848Z,25.89
2018-07-03T07:37:23.499Z,25.91
2018-07-03T07:39:50.135Z,25.88
2018-07-03T07:42:16.837Z,25.83
2018-07-03T07:44:43.475Z,25.77
2018-07-03T07:47:10.106Z,25.91
2018-07-03T07:49:36.758Z,25.84
2018-07-03T07:52:03.424Z,25.77
2018-07-03T07:54:30.111Z,25.80
2018-07-03T07:56:56.755Z,25.82
2018-07-03T07:59:23.423Z,25.97
2018-07-03T08:01:50.079Z,25.94
2018-07-03T08:04:16.892Z,26.06
2018-07-03T08:06:43.557Z,25.94
2018-07-03T08:09:10.259Z,25.90
2018-07-03T08:11:36.912Z,25.86
2018-07-03T08:14:03.528Z,25.87
2018-07-03T08:16:30.231Z,25.83
2018-07-03T08:18:56.888Z,25.78
2018-07-03T08:21:23.528Z,25.81
2018-07-03T08:23:50.170Z,25.75
2018-07-03T08:26:16.857Z,25.80
2018-07-03T08:28:43.563Z,25.82
2018-07-03T08:31:10.165Z,25.84
2018-07-03T08:33:36.863Z,25.74
2018-07-03T08:36:03.578Z,25.73
2018-07-03T08:38:30.336Z,25.75
2018-07-03T08:40:57.124Z,25.70
2018-07-03T08:43:23.790Z,25.73
2018-07-03T08:45:50.451Z,25.60
2018-07-03T08:48:17.128Z,25.74
2018-07-03T08:50:43.759Z,25.56
2018-07-03T08:53:10.480Z,25.55
2018-07-03T08:55:37.081Z,25.67
2018-07-03T08:58:03.745Z,25.82
2018-07-03T09:00:30.405Z,25.99
2018-07-03T09:02:57.083Z,25.94
2018-07-03T09:05:24.050Z,26.06
2018-07-03T09:07:50.711Z,25.90
2018-07-03T09:10:17.344Z,25.81
2018-07-03T09:12:44.028Z,25.87
2018-07-03T09:15:10.682Z,25.81
2018-07-03T09:17:37.320Z,25.98
2018-07-03T09:20:03.958Z,25.91
2018-07-03T09:22:30.686Z,25.79
2018-07-03T09:24:57.353Z,25.68
2018-07-03T09:27:24.020Z,25.71
2018-07-03T09:29:50.626Z,25.71
2018-07-03T09:32:17.290Z,25.71
2018-07-03T09:34:43.931Z,25.80
2018-07-03T09:37:10.602Z,26.00
2018-07-03T09:39:37.250Z,25.79
2018-07-03T09:42:03.927Z,25.72
2018-07-03T09:44:30.571Z,25.72
2018-07-03T09:46:57.271Z,25.65
2018-07-03T09:49:23.950Z,25.75
2018-07-03T09:51:50.588Z,25.59
2018-07-03T09:54:17.304Z,25.59
2018-07-03T09:56:43.943Z,25.55
2018-07-03T09:59:10.580Z,25.57
2018-07-03T10:01:37.299Z,25.66
2018-07-03T10:04:03.922Z,25.56
2018-07-03T10:06:30.637Z,25.58
2018-07-03T10:08:58.584Z,25.57
2018-07-03T10:11:25.244Z,25.71
2018-07-03T10:13:51.916Z,25.60
2018-07-03T10:16:18.561Z,25.52
2018-07-03T10:18:45.211Z,25.55
2018-07-03T10:21:11.848Z,25.65
2018-07-03T10:23:38.490Z,25.65
2018-07-03T10:26:05.207Z,25.65
2018-07-03T10:28:31.833Z,25.77
2018-07-03T10:30:58.517Z,25.81
2018-07-03T10:33:27.430Z,25.78
2018-07-03T10:35:54.117Z,25.72
2018-07-03T10:38:20.800Z,25.71
2018-07-03T10:40:47.407Z,25.61
2018-07-03T10:43:14.087Z,25.64
2018-07-03T10:45:40.778Z,25.63
2018-07-03T10:48:07.448Z,25.65
2018-07-03T10:50:34.115Z,25.63
2018-07-03T10:53:00.799Z,25.74
2018-07-03T10:55:27.434Z,25.79
2018-07-03T10:57:54.125Z,25.72
2018-07-03T11:00:20.820Z,25.68
2018-07-03T11:02:47.449Z,25.63
2018-07-03T11:05:14.116Z,25.57
2018-07-03T11:07:40.710Z,25.58
2018-07-03T11:10:07.500Z,25.57
2018-07-03T11:12:34.204Z,25.65
2018-07-03T11:15:00.823Z,25.64
2018-07-03T11:17:28.492Z,25.36
2018-07-03T11:19:55.311Z,25.49
2018-07-03T11:22:21.779Z,25.54
2018-07-03T11:24:48.500Z,25.55
2018-07-03T11:27:15.139Z,25.65
2018-07-03T11:29:41.782Z,25.78
2018-07-03T11:32:08.473Z,25.70
2018-07-03T11:34:35.152Z,25.67
2018-07-03T11:37:01.825Z,25.63
2018-07-03T11:39:28.482Z,25.67
2018-07-03T11:41:55.133Z,25.62
2018-07-03T11:44:21.840Z,25.47
2018-07-03T11:46:48.504Z,25.23
2018-07-03T11:49:15.136Z,25.41
2018-07-03T11:51:41.921Z,25.69
2018-07-03T11:54:08.574Z,25.82
2018-07-03T11:56:35.317Z,25.86
2018-07-03T11:59:01.968Z,25.94
2018-07-03T12:01:28.682Z,25.81
2018-07-03T12:03:55.260Z,25.71
2018-07-03T12:06:21.904Z,25.74
2018-07-03T12:08:48.602Z,25.69
2018-07-03T12:11:15.301Z,25.69
2018-07-03T12:13:41.899Z,25.72
2018-07-03T12:16:08.554Z,25.66
2018-07-03T12:18:35.195Z,25.59
2018-07-03T12:21:05.410Z,25.63
2018-07-03T12:23:32.043Z,25.56
2018-07-03T12:25:58.995Z,25.60
2018-07-03T12:28:25.749Z,25.63
2018-07-03T12:30:52.415Z,25.63
2018-07-03T12:33:19.073Z,25.65
2018-07-03T12:35:45.712Z,25.46
2018-07-03T12:38:12.444Z,25.58
2018-07-03T12:40:39.110Z,25.58
2018-07-03T12:43:05.793Z,25.58
2018-07-03T12:45:32.396Z,25.63
2018-07-03T12:47:59.045Z,25.60
2018-07-03T12:50:25.777Z,25.64
2018-07-03T12:52:52.538Z,25.75
2018-07-03T12:55:19.194Z,25.72
2018-07-03T12:57:45.993Z,25.74
2018-07-03T13:00:12.590Z,25.82
2018-07-03T13:02:41.711Z,25.92
2018-07-03T13:05:08.465Z,25.81
2018-07-03T13:07:35.053Z,25.78
2018-07-03T13:10:01.728Z,25.83
2018-07-03T13:12:28.584Z,25.86
2018-07-03T13:14:55.218Z,25.83
2018-07-03T13:17:21.898Z,25.79
2018-07-03T13:19:48.546Z,25.80
2018-07-03T13:22:15.202Z,25.88
2018-07-03T13:24:41.840Z,25.77
2018-07-03T13:27:08.477Z,25.71
2018-07-03T13:29:35.115Z,25.80
2018-07-03T13:32:01.759Z,25.78
2018-07-03T13:34:28.441Z,25.74
2018-07-03T13:36:55.042Z,25.77
2018-07-03T13:39:21.686Z,25.70
2018-07-03T13:41:48.329Z,25.63
2018-07-03T13:44:14.959Z,25.72
2018-07-03T13:46:41.655Z,25.74
2018-07-03T13:49:08.676Z,25.64
2018-07-03T13:51:35.361Z,25.75
2018-07-03T13:54:01.968Z,25.83
2018-07-03T13:56:28.615Z,25.92
2018-07-03T13:58:55.256Z,25.96
2018-07-03T14:01:21.944Z,26.03
2018-07-03T14:03:49.262Z,25.87
2018-07-03T14:06:15.788Z,25.78
2018-07-03T14:08:42.458Z,25.65
2018-07-03T14:11:09.087Z,25.68
2018-07-03T14:13:35.728Z,25.67
2018-07-03T14:16:02.650Z,25.73
2018-07-03T14:18:29.454Z,25.71
2018-07-03T14:20:56.144Z,25.70
2018-07-03T14:23:22.963Z,25.80
2018-07-03T14:25:49.584Z,25.88
2018-07-03T14:28:16.308Z,25.92
2018-07-03T14:30:42.946Z,25.83
2018-07-03T14:33:09.601Z,25.66
2018-07-03T14:35:36.279Z,25.61
2018-07-03T14:38:02.953Z,25.57
2018-07-03T14:40:29.723Z,25.64
2018-07-03T14:42:56.407Z,25.66
2018-07-03T14:45:23.064Z,25.70
2018-07-03T14:47:49.704Z,25.74
2018-07-03T14:50:16.820Z,25.75
2018-07-03T14:52:43.522Z,25.86
2018-07-03T14:55:10.217Z,25.86
2018-07-03T14:57:36.881Z,25.78
2018-07-03T15:00:03.623Z,25.74
2018-07-03T15:02:30.253Z,25.54
2018-07-03T15:04:56.961Z,25.39
2018-07-03T15:07:23.633Z,25.53
2018-07-03T15:09:50.286Z,25.67
2018-07-03T15:12:17.135Z,25.73
2018-07-03T15:14:43.876Z,25.84
2018-07-03T15:17:10.531Z,25.82
2018-07-03T15:19:37.234Z,25.86
2018-07-03T15:22:03.877Z,25.90
2018-07-03T15:24:30.634Z,25.85
2018-07-03T15:26:58.383Z,25.92
2018-07-03T15:29:25.088Z,25.88
2018-07-03T15:31:51.751Z,25.84
2018-07-03T15:34:18.391Z,25.85
2018-07-03T15:36:45.058Z,25.85
2018-07-03T15:39:11.769Z,25.84
2018-07-03T15:41:38.513Z,25.83
2018-07-03T15:44:05.153Z,25.84
2018-07-03T15:46:31.840Z,25.85
2018-07-03T15:48:58.578Z,25.84
2018-07-03T15:51:25.217Z,25.85
2018-07-03T15:53:51.854Z,25.77
2018-07-03T15:56:18.529Z,25.75
2018-07-03T15:58:45.181Z,25.75
2018-07-03T16:01:11.823Z,25.74
2018-07-03T16:03:38.508Z,25.76
2018-07-03T16:06:05.131Z,25.71
2018-07-03T16:08:31.822Z,25.75
2018-07-03T16:10:59.501Z,25.73
2018-07-03T16:13:26.163Z,25.69
2018-07-03T16:15:52.775Z,25.70
2018-07-03T16:18:19.439Z,25.97
2018-07-03T16:20:46.095Z,26.08
2018-07-03T16:23:12.780Z,26.18
2018-07-03T16:25:39.422Z,25.97
2018-07-03T16:28:06.103Z,25.67
2018-07-03T16:30:32.795Z,25.46
2018-07-03T16:32:59.443Z,25.47
2018-07-03T16:35:26.080Z,25.39
2018-07-03T16:37:52.723Z,25.21
2018-07-03T16:40:19.387Z,25.41
2018-07-03T16:42:46.069Z,25.46
2018-07-03T16:45:12.681Z,25.56
2018-07-03T16:47:39.315Z,25.74
2018-07-03T16:50:06.014Z,25.81
2018-07-03T16:52:32.678Z,25.81
2018-07-03T16:54:59.366Z,25.90
2018-07-03T16:57:26.050Z,26.00
2018-07-03T16:59:52.683Z,26.00
2018-07-03T17:02:19.380Z,26.04
2018-07-03T17:04:46.018Z,26.14
2018-07-03T17:07:12.711Z,26.05
2018-07-03T17:09:39.367Z,25.75
2018-07-03T17:12:06.048Z,25.50
2018-07-03T17:14:32.707Z,25.25
2018-07-03T17:16:59.430Z,25.24
2018-07-03T17:19:26.068Z,25.50
2018-07-03T17:21:52.702Z,25.56
2018-07-03T17:24:19.394Z,25.57
2018-07-03T17:26:46.082Z,25.64
2018-07-03T17:29:12.737Z,25.82
2018-07-03T17:31:39.408Z,25.93
2018-07-03T17:34:06.049Z,26.03
2018-07-03T17:36:32.679Z,26.07
2018-07-03T17:38:59.321Z,26.09
2018-07-03T17:41:25.957Z,26.12
2018-07-03T17:43:52.621Z,26.03
2018-07-03T17:46:19.266Z,26.12
2018-07-03T17:48:45.901Z,26.17
2018-07-03T17:51:12.575Z,26.19
2018-07-03T17:53:39.200Z,26.06
2018-07-03T17:56:05.885Z,25.85
2018-07-03T17:58:32.522Z,25.79
2018-07-03T18:00:59.159Z,25.69
2018-07-03T18:03:25.793Z,25.74
2018-07-03T18:05:52.435Z,25.87
2018-07-03T18:08:19.270Z,25.93
2018-07-03T18:10:45.753Z,26.00
2018-07-03T18:13:12.397Z,26.01
2018-07-03T18:15:39.031Z,26.05
2018-07-03T18:18:05.667Z,25.99
2018-07-03T18:20:32.306Z,26.00
2018-07-03T18:22:58.994Z,26.04
2018-07-03T18:25:25.635Z,26.08
2018-07-03T18:27:52.316Z,26.07
2018-07-03T18:30:18.953Z,26.12
2018-07-03T18:32:45.650Z,26.13
2018-07-03T18:35:12.283Z,26.08
2018-07-03T18:37:38.974Z,25.95
2018-07-03T18:40:05.700Z,25.81
2018-07-03T18:42:32.344Z,25.68
2018-07-03T18:44:58.986Z,25.67
2018-07-03T18:47:25.640Z,25.77
2018-07-03T18:49:52.279Z,25.93
2018-07-03T18:52:19.013Z,25.93
2018-07-03T18:54:45.607Z,25.96
2018-07-03T18:57:12.262Z,25.93
2018-07-03T18:59:38.900Z,26.03
2018-07-03T19:02:05.573Z,26.05
2018-07-03T19:04:32.220Z,26.07
2018-07-03T19:06:58.884Z,26.07
2018-07-03T19:09:25.538Z,26.09
2018-07-03T19:11:52.173Z,26.09
2018-07-03T19:14:18.805Z,26.08
2018-07-03T19:16:45.455Z,26.11
2018-07-03T19:19:12.109Z,26.12
2018-07-03T19:21:38.744Z,26.08
2018-07-03T19:24:05.395Z,26.00
2018-07-03T19:26:32.113Z,25.98
2018-07-03T19:28:58.722Z,26.02
2018-07-03T19:31:25.406Z,26.03
2018-07-03T19:33:52.036Z,26.05
2018-07-03T19:36:18.818Z,26.06
2018-07-03T19:38:45.441Z,26.06
2018-07-03T19:41:12.052Z,26.09
2018-07-03T19:43:38.767Z,26.09
2018-07-03T19:46:05.397Z,26.08
2018-07-03T19:48:32.069Z,26.10
2018-07-03T19:50:58.713Z,26.09
2018-07-03T19:53:25.346Z,26.10
2018-07-03T19:55:54.123Z,26.09
2018-07-03T19:58:18.628Z,26.12
2018-07-03T20:00:45.317Z,26.09
2018-07-03T20:03:11.989Z,26.11
2018-07-03T20:05:38.624Z,26.11
2018-07-03T20:08:05.275Z,26.12
2018-07-03T20:10:31.934Z,26.05
2018-07-03T20:12:58.583Z,25.95
2018-07-03T20:15:25.248Z,25.80
2018-07-03T20:17:51.881Z,25.78
2018-07-03T20:20:18.522Z,25.61
2018-07-03T20:22:45.165Z,25.75
2018-07-03T20:25:11.884Z,25.86
2018-07-03T20:27:38.565Z,25.87
2018-07-03T20:30:05.205Z,25.93
2018-07-03T20:32:31.851Z,25.96
2018-07-03T20:35:01.960Z,25.97
2018-07-03T20:37:28.603Z,25.97
2018-07-03T20:39:55.292Z,25.96
2018-07-03T20:42:21.928Z,25.85
2018-07-03T20:44:48.615Z,25.89
2018-07-03T20:47:15.250Z,25.93
2018-07-03T20:49:41.895Z,25.96
2018-07-03T20:52:08.531Z,25.96
2018-07-03T20:54:35.167Z,26.00
2018-07-03T20:57:01.869Z,26.01
2018-07-03T20:59:28.495Z,26.03
2018-07-03T21:01:55.164Z,26.00
2018-07-03T21:04:21.937Z,26.03
2018-07-03T21:06:48.592Z,26.02
2018-07-03T21:09:15.242Z,26.01
2018-07-03T21:11:41.901Z,26.01
2018-07-03T21:14:08.581Z,26.03
2018-07-03T21:16:35.265Z,26.02
2018-07-03T21:19:01.902Z,26.01
2018-07-03T21:21:28.589Z,26.03
2018-07-03T21:23:55.223Z,26.03
2018-07-03T21:26:21.900Z,26.01
2018-07-03T21:28:48.507Z,26.04
2018-07-03T21:31:15.150Z,26.04
2018-07-03T21:33:41.842Z,26.04
2018-07-03T21:36:08.480Z,26.00
2018-07-03T21:38:35.135Z,26.01
2018-07-03T21:41:01.777Z,26.00
2018-07-03T21:43:28.495Z,26.00
2018-07-03T21:45:55.134Z,26.00
2018-07-03T21:48:21.769Z,26.01
2018-07-03T21:50:48.418Z,26.01
2018-07-03T21:53:15.051Z,26.01
2018-07-03T21:55:41.741Z,25.99
2018-07-03T21:58:08.408Z,25.98
2018-07-03T22:00:35.016Z,25.98
2018-07-03T22:03:01.645Z,25.98
2018-07-03T22:05:28.291Z,25.97
2018-07-03T22:07:54.930Z,26.00
2018-07-03T22:10:21.617Z,25.90
2018-07-03T22:12:48.301Z,25.88
2018-07-03T22:15:14.936Z,25.91
2018-07-03T22:17:41.617Z,25.95
2018-07-03T22:20:08.293Z,25.92
2018-07-03T22:22:34.937Z,25.94
2018-07-03T22:25:01.589Z,25.92
2018-07-03T22:27:28.226Z,25.91
2018-07-03T22:29:54.901Z,25.94
2018-07-03T22:32:21.552Z,25.93
2018-07-03T22:34:48.224Z,25.93
2018-07-03T22:37:14.832Z,25.93
2018-07-03T22:39:41.587Z,25.92
2018-07-03T22:42:08.191Z,25.93
2018-07-03T22:44:34.828Z,25.94
2018-07-03T22:47:01.477Z,25.92
2018-07-03T22:49:28.175Z,25.93
2018-07-03T22:51:54.805Z,25.93
2018-07-03T22:54:21.444Z,25.93
2018-07-03T22:56:48.118Z,25.93
2018-07-03T22:59:14.772Z,25.90
2018-07-03T23:01:41.411Z,25.92
2018-07-03T23:04:08.085Z,25.88
2018-07-03T23:06:34.690Z,25.89
2018-07-03T23:09:01.350Z,25.88
2018-07-03T23:11:27.994Z,25.86
2018-07-03T23:13:54.633Z,25.85
2018-07-03T23:16:21.271Z,25.86
2018-07-03T23:18:47.903Z,25.85
2018-07-03T23:21:14.549Z,25.85
2018-07-03T23:23:41.176Z,25.81
2018-07-03T23:26:07.823Z,25.86
2018-07-03T23:28:34.524Z,25.81
2018-07-03T23:31:01.162Z,25.82
2018-07-03T23:33:27.807Z,25.80
2018-07-03T23:35:54.444Z,25.79
2018-07-03T23:38:21.078Z,25.79
2018-07-03T23:40:47.723Z,25.80
2018-07-03T23:43:14.401Z,25.81
2018-07-03T23:45:41.023Z,25.79
2018-07-03T23:48:07.707Z,25.79
2018-07-03T23:50:34.322Z,25.78
2018-07-03T23:53:00.983Z,25.81
2018-07-03T23:55:27.626Z,25.79
2018-07-03T23:57:54.311Z,25.77
